Yaupon Beach, North Carolina
Current Conditions -  °F | °C
As of 2:55 AM on Thursday 23 Oct 2014 (Local Time) from KSUT Reporting Station
Clear Clear  
Wind Chill: 46°   Ceiling: Unl
Heat Index: 50°   Visibility: 10mi
Dew Point: 42°   Wind: 8mph
Humidity: 75%   Direction: 340°NNW
Pressure: 30.01"   Gusts: NA
Location:  33.9216°N, 78.1244°W
Report Text: KSUT 230655Z AUTO 34007KT 10SM CLR 10/06 A3001 RMK AO2 T00980056
Loading
Personal Weather Stations






























Interactive Weather Map New forecast layout! Learn more

10-Day Weather Forecast

Advertisements
Track Severe Weather on mobile